Pine Air, New York
Current Conditions -  °F | °C
As of 5:56 AM on Monday 22 Dec 2014 (Local Time) from KISP Reporting Station
Overcast Overcast  
Wind Chill: 30°   Ceiling: 900
Heat Index: 38°   Visibility: 10mi
Dew Point: 34°   Wind: 12mph
Humidity: 86%   Direction: 30°NNE
Pressure: 30.29"   Gusts: NA
Location:  40.7837°N, 73.252°W
Report Text: KISP 221056Z 03010KT 10SM BKN009 OVC041 03/01 A3029 RMK AO2 SLP257 FIRST AUGMENTED OBSERVATION T00330011
Loading
Personal Weather Stations






























Interactive Weather Map New forecast layout! Learn more

10-Day Weather Forecast

Advertisements
Track Severe Weather on mobile